Terminal Aerodrome Forecast
Issued by NWS

Home | Current Version | Previous Version | Text Only | Print | Product List | Glossary Off
Versions: 1 2 3 4 5 6 7 8 9 10 11 12 13 14 15 16 17 18

788
FTUS43 KFGF 200956 AAC
TAFBJI
TAF AMD
KBJI 200956Z 2010/2106 26005KT 3SM BR SCT250
     FM201400 25004KT P6SM BKN100
     FM202100 26005KT P6SM SCT140
     FM210000 25004KT P6SM BKN070=

USA.gov is the U.S. government's official web portal to all federal, state and local government web resources and services.